Time;durP1;ratioP1;P1;durP2;ratioP2;P2;SDS_P1;SDS_P2;PMS_P1;PMS_P2;Temp;Humidity;BMP_temperature;BMP_pressure;BME280_temperature;BME280_humidity;BME280_pressure;Samples;Min_cycle;Max_cycle;Signal;HPM_P1;HPM_P2
2021/01/06 00:01:03;;;;;;;12.65;7.62;;;;;;;3.28;90.69;99659.99;1805743;78;26785;-68
2021/01/06 00:03:28;;;;;;;12.67;8.00;;;;;;;3.31;90.65;99661.52;1803316;78;21324;-67
2021/01/06 00:05:58;;;;;;;13.10;7.63;;;;;;;3.31;90.84;99661.52;1804961;77;24082;-67
2021/01/06 00:08:24;;;;;;;11.65;7.45;;;;;;;3.32;90.99;99661.88;1809953;77;21593;-67
2021/01/06 00:10:55;;;;;;;14.07;7.87;;;;;;;3.37;90.83;99661.88;1806160;77;21173;-69
2021/01/06 00:13:21;;;;;;;12.70;7.67;;;;;;;3.39;90.50;99668.28;1806168;77;21232;-67
2021/01/06 00:15:47;;;;;;;12.82;8.10;;;;;;;3.40;90.36;99668.61;1809208;77;21671;-68
2021/01/06 00:18:14;;;;;;;11.60;7.37;;;;;;;3.36;90.25;99672.44;1808233;77;25483;-66
2021/01/06 00:20:39;;;;;;;14.13;7.70;;;;;;;3.36;90.53;99667.22;1802665;77;21153;-67
2021/01/06 00:23:05;;;;;;;11.33;7.12;;;;;;;3.44;90.32;99666.13;1785144;79;28524;-68
2021/01/06 00:25:33;;;;;;;12.05;7.33;;;;;;;3.49;90.24;99667.88;1784166;79;26776;-67
2021/01/06 00:27:59;;;;;;;13.30;7.95;;;;;;;3.55;90.23;99664.78;1783346;79;21236;-66
2021/01/06 00:30:32;;;;;;;13.93;7.90;;;;;;;3.55;90.14;99668.70;1779656;79;21185;-68
2021/01/06 00:32:58;;;;;;;11.95;7.17;;;;;;;3.54;89.96;99662.30;1778750;79;21189;-68
2021/01/06 00:35:24;;;;;;;12.55;7.55;;;;;;;3.55;89.88;99662.17;1785183;78;21587;-67
2021/01/06 00:37:50;;;;;;;13.08;7.60;;;;;;;3.56;89.68;99663.84;1786564;79;21247;-67
2021/01/06 00:40:17;;;;;;;11.15;7.35;;;;;;;3.57;89.69;99665.51;1790715;78;21673;-67
2021/01/06 00:42:43;;;;;;;8.65;5.10;;;;;;;3.58;89.62;99667.14;1783190;79;21111;-67
2021/01/06 00:45:15;;;;;;;13.10;7.53;;;;;;;3.61;89.62;99670.48;1787711;79;25944;-66
2021/01/06 00:47:42;;;;;;;12.55;7.37;;;;;;;3.61;89.52;99665.27;1791857;78;21212;-66
2021/01/06 00:50:08;;;;;;;11.65;6.58;;;;;;;3.54;89.77;99664.45;1787526;78;21179;-66
2021/01/06 00:52:34;;;;;;;12.88;7.25;;;;;;;3.62;89.70;99666.90;1788988;78;22050;-65
2021/01/06 00:55:00;;;;;;;11.45;7.30;;;;;;;3.63;89.60;99667.27;1784229;79;26755;-67
2021/01/06 00:57:25;;;;;;;11.77;7.30;;;;;;;3.58;89.49;99668.45;1782187;78;23917;-65
2021/01/06 00:59:51;;;;;;;11.25;7.25;;;;;;;3.58;89.44;99671.06;1788390;79;28367;-65
2021/01/06 01:02:17;;;;;;;10.48;6.67;;;;;;;3.58;89.56;99668.94;1785638;79;26614;-66
2021/01/06 01:04:44;;;;;;;11.55;7.10;;;;;;;3.59;89.60;99677.95;1783751;79;21348;-66
2021/01/06 01:07:10;;;;;;;11.55;7.33;;;;;;;3.61;89.55;99686.15;1780143;79;21120;-66
2021/01/06 01:09:36;;;;;;;11.00;6.93;;;;;;;3.63;89.51;99680.31;1784037;78;24767;-66
2021/01/06 01:12:06;;;;;;;13.30;7.17;;;;;;;3.59;89.44;99688.88;1785086;78;28869;-66
2021/01/06 01:14:32;;;;;;;14.28;7.72;;;;;;;3.57;89.36;99677.26;1788473;78;21515;-65
2021/01/06 01:16:57;;;;;;;11.10;7.30;;;;;;;3.60;89.31;99681.38;1786772;78;21912;-65
2021/01/06 01:19:23;;;;;;;13.38;7.35;;;;;;;3.56;89.27;99688.64;1763930;79;26437;-65
2021/01/06 01:21:49;;;;;;;12.37;7.30;;;;;;;3.62;89.23;99686.48;1782421;79;23649;-65
2021/01/06 01:24:14;;;;;;;11.55;7.00;;;;;;;3.63;89.17;99693.38;1793885;79;28309;-65
2021/01/06 01:26:40;;;;;;;11.78;7.28;;;;;;;3.61;89.28;99688.76;1793893;79;26706;-64
2021/01/06 01:29:06;;;;;;;13.10;7.67;;;;;;;3.63;89.26;99689.45;1792243;78;21934;-64
2021/01/06 01:31:33;;;;;;;11.28;7.12;;;;;;;3.66;89.40;99682.69;1788864;79;21232;-64
2021/01/06 01:33:59;;;;;;;15.75;7.62;;;;;;;3.55;89.07;99686.97;1792888;79;21197;-65
2021/01/06 01:36:29;;;;;;;10.58;6.87;;;;;;;3.53;89.41;99690.19;1792699;79;28752;-64
2021/01/06 01:38:55;;;;;;;11.00;6.78;;;;;;;3.51;89.83;99693.41;1790947;78;21180;-64
2021/01/06 01:41:26;;;;;;;11.88;7.08;;;;;;;3.49;90.05;99692.68;1789475;78;21944;-64
2021/01/06 01:43:51;;;;;;;13.40;6.95;;;;;;;3.52;89.75;99698.14;1792332;78;21222;-66
2021/01/06 01:46:31;;;;;;;12.55;7.60;;;;;;;3.57;89.86;99695.98;1794110;79;23784;-66
2021/01/06 01:48:57;;;;;;;12.43;7.37;;;;;;;3.65;89.75;99698.84;1791460;79;21217;-66
2021/01/06 01:51:43;;;;;;;12.03;7.25;;;;;;;3.64;89.45;99698.95;1794364;79;26999;-65
2021/01/06 01:54:11;;;;;;;12.93;8.00;;;;;;;3.67;89.21;99701.33;1794492;78;21229;-65
2021/01/06 01:56:51;;;;;;;13.18;7.65;;;;;;;3.69;89.37;99701.53;1793682;78;21217;-66
2021/01/06 01:59:31;;;;;;;11.10;7.58;;;;;;;3.68;89.31;99702.96;1791425;78;21456;-67
2021/01/06 02:02:01;;;;;;;13.20;8.10;;;;;;;3.62;89.28;99700.84;1791504;79;21221;-66
2021/01/06 02:04:35;;;;;;;13.10;8.00;;;;;;;3.62;89.20;99708.22;1794837;78;21622;-67
2021/01/06 02:07:17;;;;;;;12.88;7.60;;;;;;;3.60;89.29;99708.80;1789526;78;22318;-67
2021/01/06 02:10:09;;;;;;;14.95;7.83;;;;;;;3.62;89.53;99709.52;1790641;79;21201;-66
2021/01/06 02:12:47;;;;;;;14.55;8.45;;;;;;;3.63;89.49;99710.34;1790983;79;21106;-64
2021/01/06 02:15:43;;;;;;;14.18;8.55;;;;;;;3.61;89.45;99707.86;1789673;79;21173;-64
2021/01/06 02:18:09;;;;;;;13.78;7.97;;;;;;;3.65;89.45;99706.67;1794136;79;21192;-65
2021/01/06 02:20:35;;;;;;;12.88;7.72;;;;;;;3.64;89.48;99712.02;1794243;79;21938;-66
2021/01/06 02:23:01;;;;;;;14.37;8.97;;;;;;;3.65;89.45;99704.52;1780470;78;26043;-65
2021/01/06 02:25:28;;;;;;;15.53;8.63;;;;;;;3.68;89.51;99710.80;1778666;78;21780;-65
2021/01/06 02:27:55;;;;;;;14.35;9.13;;;;;;;3.70;89.48;99703.69;1759763;79;21177;-65
2021/01/06 02:30:21;;;;;;;13.45;8.88;;;;;;;3.71;89.40;99711.86;1734869;80;21240;-64
2021/01/06 02:32:48;;;;;;;18.07;9.98;;;;;;;3.72;89.47;99711.73;1779409;78;21323;-65
2021/01/06 02:35:14;;;;;;;16.73;10.38;;;;;;;3.72;89.47;99709.61;1781997;78;21145;-65
2021/01/06 02:37:39;;;;;;;16.57;10.37;;;;;;;3.71;89.55;99705.33;1777857;78;23991;-65
2021/01/06 02:40:07;;;;;;;18.30;10.88;;;;;;;3.71;89.55;99700.11;1775930;80;28427;-65
2021/01/06 02:42:33;;;;;;;18.00;11.03;;;;;;;3.73;89.66;99699.53;1778558;78;21620;-65
2021/01/06 02:44:59;;;;;;;18.12;11.35;;;;;;;3.72;89.67;99701.78;1782289;78;22285;-65
2021/01/06 02:47:25;;;;;;;18.30;11.50;;;;;;;3.70;89.68;99706.30;1775266;78;21232;-66
2021/01/06 02:49:50;;;;;;;17.80;11.03;;;;;;;3.74;89.83;99696.80;1783444;78;23707;-67
2021/01/06 02:52:19;;;;;;;18.12;11.57;;;;;;;3.78;89.71;99698.67;1783657;78;28297;-65
2021/01/06 02:54:46;;;;;;;15.20;10.28;;;;;;;3.82;89.43;99704.47;1721634;80;21479;-65
2021/01/06 02:57:13;;;;;;;18.52;11.33;;;;;;;3.76;89.36;99701.41;1766187;78;21145;-66
2021/01/06 02:59:42;;;;;;;20.75;11.45;;;;;;;3.75;89.79;99706.75;1760008;80;21270;-66
2021/01/06 03:02:13;;;;;;;16.20;11.43;;;;;;;3.78;90.02;99698.67;1777845;78;21155;-66
2021/01/06 03:04:44;;;;;;;18.00;11.78;;;;;;;3.79;89.76;99700.31;1783619;78;21129;-66
2021/01/06 03:07:11;;;;;;;17.52;11.45;;;;;;;3.72;89.96;99699.16;1780765;78;21760;-66
2021/01/06 03:09:41;;;;;;;20.82;12.43;;;;;;;3.78;89.83;99702.59;1779441;78;21388;-66
2021/01/06 03:12:17;;;;;;;16.85;11.60;;;;;;;3.76;89.50;99700.59;1780959;78;21196;-66
2021/01/06 03:14:43;;;;;;;19.83;12.70;;;;;;;3.82;89.79;99707.90;1781061;78;21173;-67
2021/01/06 03:17:10;;;;;;;20.40;13.08;;;;;;;3.84;89.68;99706.02;1779300;78;28324;-66
2021/01/06 03:19:38;;;;;;;22.62;13.18;;;;;;;3.82;89.69;99707.08;1782494;78;21492;-67
2021/01/06 03:22:06;;;;;;;20.02;13.05;;;;;;;3.68;89.75;99712.10;1784452;78;21137;-67
2021/01/06 03:24:38;;;;;;;24.07;14.33;;;;;;;3.68;90.28;99709.03;1786447;78;21199;-66
2021/01/06 03:27:03;;;;;;;22.07;13.55;;;;;;;3.70;90.26;99706.30;1761146;79;21222;-67
2021/01/06 03:29:30;;;;;;;19.45;13.28;;;;;;;3.75;90.20;99709.36;1761972;78;28328;-67
2021/01/06 03:31:59;;;;;;;25.62;13.90;;;;;;;3.68;90.09;99712.95;1760357;80;21583;-67
2021/01/06 03:34:30;;;;;;;22.30;14.30;;;;;;;3.67;90.15;99717.81;1732165;81;21210;-66
2021/01/06 03:37:35;;;;;;;21.42;14.75;;;;;;;3.69;90.32;99715.08;1706007;81;21170;-67
2021/01/06 03:40:18;;;;;;;25.00;15.25;;;;;;;3.64;90.42;99720.66;1643147;85;21221;-66
2021/01/06 03:42:44;;;;;;;24.80;15.35;;;;;;;3.59;90.64;99718.42;1685132;83;21732;-66
2021/01/06 03:45:14;;;;;;;23.80;15.25;;;;;;;3.64;90.77;99717.23;1738076;79;26908;-66
2021/01/06 03:47:40;;;;;;;24.95;16.37;;;;;;;3.45;90.80;99721.30;1779571;78;22086;-67
2021/01/06 03:50:24;;;;;;;23.42;15.53;;;;;;;3.44;91.07;99715.72;1786330;78;27255;-66
2021/01/06 03:53:04;;;;;;;23.77;15.60;;;;;;;3.50;91.22;99717.84;1779242;78;21237;-68
2021/01/06 03:55:35;;;;;;;25.85;16.10;;;;;;;3.50;90.93;99719.15;1780019;78;21221;-67
2021/01/06 03:58:01;;;;;;;26.75;16.60;;;;;;;3.45;91.24;99718.69;1787663;78;21186;-67
2021/01/06 04:00:44;;;;;;;25.37;15.85;;;;;;;3.51;91.18;99717.36;1782357;78;21840;-67
2021/01/06 04:03:20;;;;;;;24.23;15.98;;;;;;;3.56;90.93;99717.36;1765376;78;21149;-67
2021/01/06 04:05:46;;;;;;;26.20;15.95;;;;;;;3.53;91.06;99717.60;1782176;78;21197;-67
2021/01/06 04:08:14;;;;;;;25.72;15.85;;;;;;;3.49;90.94;99716.17;1764351;78;21182;-67
2021/01/06 04:10:41;;;;;;;26.35;15.65;;;;;;;3.45;91.24;99716.08;1784530;79;21659;-67
2021/01/06 04:13:06;;;;;;;27.33;16.37;;;;;;;3.40;91.35;99713.84;1733846;79;21512;-67
2021/01/06 04:15:32;;;;;;;24.73;16.13;;;;;;;3.50;91.52;99720.94;1783823;78;26203;-67
2021/01/06 04:17:58;;;;;;;30.40;17.37;;;;;;;3.39;91.40;99721.78;1785276;78;25338;-67
2021/01/06 04:20:37;;;;;;;29.27;17.65;;;;;;;3.31;91.62;99711.09;1768097;78;28400;-66
2021/01/06 04:23:10;;;;;;;30.10;17.90;;;;;;;3.33;91.87;99711.83;1786445;78;21646;-67
2021/01/06 04:25:44;;;;;;;32.63;17.77;;;;;;;3.27;91.94;99712.30;1785949;78;21595;-67
2021/01/06 04:28:17;;;;;;;29.48;16.62;;;;;;;3.30;92.26;99715.98;1785092;78;21568;-68
2021/01/06 04:30:47;;;;;;;32.15;18.87;;;;;;;3.23;92.07;99715.61;1779307;79;21200;-66
2021/01/06 04:33:32;;;;;;;30.32;17.80;;;;;;;3.14;92.49;99714.56;1780284;78;21735;-66
2021/01/06 04:36:01;;;;;;;30.50;16.85;;;;;;;3.22;92.70;99721.31;1781995;78;21625;-67
2021/01/06 04:38:30;;;;;;;33.90;18.60;;;;;;;3.27;92.66;99727.96;1781937;78;21595;-67
2021/01/06 04:41:00;;;;;;;32.70;18.52;;;;;;;3.31;92.71;99725.45;1782347;78;21150;-67
2021/01/06 04:43:44;;;;;;;29.02;17.75;;;;;;;3.33;92.60;99730.09;1783444;78;22507;-67
2021/01/06 04:46:46;;;;;;;32.65;18.07;;;;;;;3.25;92.50;99725.47;1758312;79;21122;-66
2021/01/06 04:49:26;;;;;;;32.25;18.55;;;;;;;3.24;92.53;99732.94;1780698;78;21095;-65
2021/01/06 04:52:24;;;;;;;33.67;17.57;;;;;;;3.22;92.68;99740.88;1780123;79;21414;-65
2021/01/06 04:55:37;;;;;;;32.30;17.98;;;;;;;3.28;92.66;99742.65;1789032;78;21591;-66
2021/01/06 04:58:51;;;;;;;34.08;19.77;;;;;;;3.23;92.38;99742.55;1753873;78;21170;-66
2021/01/06 05:01:56;;;;;;;31.48;17.55;;;;;;;3.33;92.42;99738.74;1779167;79;21623;-66
2021/01/06 05:04:33;;;;;;;33.42;18.65;;;;;;;3.34;92.23;99740.41;1783152;78;21611;-67
2021/01/06 05:07:16;;;;;;;30.85;17.67;;;;;;;3.38;92.14;99742.30;1780836;78;22059;-67
2021/01/06 05:09:50;;;;;;;33.78;17.80;;;;;;;3.43;92.10;99746.67;1779894;78;21560;-66
2021/01/06 05:12:21;;;;;;;33.60;18.98;;;;;;;3.39;92.06;99747.89;1776881;78;21182;-65
2021/01/06 05:14:53;;;;;;;31.25;18.82;;;;;;;3.41;92.01;99752.50;1785926;78;21171;-66
2021/01/06 05:17:19;;;;;;;32.30;18.20;;;;;;;3.44;91.95;99750.95;1785599;78;21232;-67
2021/01/06 05:19:48;;;;;;;30.32;17.98;;;;;;;3.50;91.83;99751.78;1781407;78;21861;-66
2021/01/06 05:22:13;;;;;;;34.43;18.98;;;;;;;3.42;91.72;99755.47;1784482;78;21170;-67
2021/01/06 05:24:46;;;;;;;32.20;19.00;;;;;;;3.45;91.97;99756.55;1794345;78;23755;-67
2021/01/06 05:27:25;;;;;;;33.85;18.42;;;;;;;3.45;91.66;99763.06;1796523;79;21608;-66
2021/01/06 05:29:58;;;;;;;35.13;18.32;;;;;;;3.20;91.82;99749.31;1794354;79;21168;-65
2021/01/06 05:32:35;;;;;;;30.35;18.00;;;;;;;3.14;92.31;99751.55;1789392;78;21245;-67
2021/01/06 05:35:11;;;;;;;33.15;18.73;;;;;;;3.20;92.44;99757.59;1796641;79;21186;-66
2021/01/06 05:37:36;;;;;;;29.67;17.90;;;;;;;3.20;92.29;99755.84;1770027;79;21173;-66
2021/01/06 05:40:08;;;;;;;35.50;18.82;;;;;;;3.06;92.46;99757.34;1793461;79;28322;-66
2021/01/06 05:42:54;;;;;;;33.13;18.80;;;;;;;3.13;92.77;99761.16;1793121;79;21118;-66
2021/01/06 05:45:25;;;;;;;32.40;18.98;;;;;;;3.14;93.17;99764.13;1795040;78;22099;-67
2021/01/06 05:48:17;;;;;;;31.87;18.17;;;;;;;3.22;92.70;99762.24;1791386;78;21225;-67
2021/01/06 05:51:10;;;;;;;33.42;18.80;;;;;;;3.24;92.64;99762.45;1796790;79;21221;-67
2021/01/06 05:53:57;;;;;;;32.95;17.37;;;;;;;3.24;92.20;99768.98;1794039;79;21222;-67
2021/01/06 05:56:40;;;;;;;26.95;16.73;;;;;;;3.20;91.98;99766.73;1793774;79;21174;-65
2021/01/06 05:59:43;;;;;;;33.15;17.92;;;;;;;3.31;92.07;99772.42;1788457;78;21350;-66
2021/01/06 06:02:38;;;;;;;31.90;18.07;;;;;;;3.31;92.03;99773.73;1774972;79;21189;-66
2021/01/06 06:05:38;;;;;;;28.92;16.82;;;;;;;3.40;91.90;99775.17;1721776;82;21241;-67
2021/01/06 06:08:18;;;;;;;29.87;17.07;;;;;;;3.45;91.66;99776.12;1725328;82;21611;-66
2021/01/06 06:11:05;;;;;;;30.65;17.42;;;;;;;3.40;91.33;99777.78;1769050;78;21564;-65
2021/01/06 06:13:36;;;;;;;27.02;15.65;;;;;;;3.45;91.61;99777.42;1793792;78;21982;-65
2021/01/06 06:16:36;;;;;;;26.52;15.90;;;;;;;3.46;91.09;99780.37;1791452;79;21643;-66
2021/01/06 06:19:45;;;;;;;29.05;16.80;;;;;;;3.47;91.10;99782.52;1788538;79;21202;-65
2021/01/06 06:22:21;;;;;;;28.32;16.07;;;;;;;3.46;91.21;99767.31;1793993;78;21213;-65
2021/01/06 06:25:00;;;;;;;30.52;17.10;;;;;;;3.51;91.40;99774.33;1784093;78;21487;-67
2021/01/06 06:27:55;;;;;;;31.87;17.50;;;;;;;3.55;91.22;99775.73;1770833;77;21180;-65
2021/01/06 06:30:35;;;;;;;30.77;16.77;;;;;;;3.55;90.90;99779.65;1736494;80;21189;-66
2021/01/06 06:33:01;;;;;;;28.02;16.97;;;;;;;3.59;90.86;99779.77;1735452;80;21226;-66
2021/01/06 06:35:34;;;;;;;29.48;17.30;;;;;;;3.62;90.51;99780.48;1763333;78;29105;-66
2021/01/06 06:38:07;;;;;;;31.17;17.07;;;;;;;3.67;90.52;99779.66;1800855;78;21646;-66
2021/01/06 06:41:00;;;;;;;29.02;16.97;;;;;;;3.63;90.31;99786.06;1796514;78;21209;-66
2021/01/06 06:43:37;;;;;;;29.00;17.70;;;;;;;3.64;90.36;99786.42;1798742;78;21496;-64
2021/01/06 06:46:36;;;;;;;28.60;15.70;;;;;;;3.56;90.47;99791.77;1790463;78;21189;-65
2021/01/06 06:49:56;;;;;;;27.32;16.17;;;;;;;3.54;90.20;99796.73;1795984;78;21228;-65
2021/01/06 06:52:58;;;;;;;29.45;16.70;;;;;;;3.55;90.30;99797.11;1766491;79;21144;-65
2021/01/06 06:55:58;;;;;;;31.65;17.40;;;;;;;3.44;90.29;99799.24;1792739;79;21454;-67
2021/01/06 06:58:58;;;;;;;29.12;15.93;;;;;;;3.49;90.52;99793.18;1796955;78;21185;-66
2021/01/06 07:01:26;;;;;;;28.85;16.85;;;;;;;3.48;90.63;99801.13;1793823;79;21224;-68
2021/01/06 07:04:03;;;;;;;31.42;17.85;;;;;;;3.39;90.97;99800.09;1795631;78;21190;-68
2021/01/06 07:06:29;;;;;;;33.03;17.53;;;;;;;3.38;91.10;99801.02;1798949;78;21171;-68
2021/01/06 07:08:58;;;;;;;26.82;16.65;;;;;;;3.37;91.10;99804.57;1799045;78;21076;-66
2021/01/06 07:11:41;;;;;;;30.40;18.17;;;;;;;3.36;91.20;99802.94;1776833;78;21241;-66
2021/01/06 07:14:27;;;;;;;31.70;17.70;;;;;;;3.39;91.23;99803.52;1795601;78;21169;-66
2021/01/06 07:17:07;;;;;;;30.08;16.70;;;;;;;3.43;90.98;99806.70;1793817;77;21185;-68
2021/01/06 07:19:41;;;;;;;29.95;17.32;;;;;;;3.47;90.68;99808.14;1794452;78;21260;-65
2021/01/06 07:22:36;;;;;;;26.42;17.25;;;;;;;3.49;90.73;99811.45;1795212;77;21237;-65
2021/01/06 07:25:23;;;;;;;32.60;18.10;;;;;;;3.47;90.24;99812.55;1782662;78;21153;-66
2021/01/06 07:27:56;;;;;;;37.85;17.12;;;;;;;3.50;90.64;99820.95;1791044;78;21229;-65
2021/01/06 07:30:38;;;;;;;30.65;17.60;;;;;;;3.44;90.42;99824.05;1788315;78;21193;-65
2021/01/06 07:33:33;;;;;;;30.60;18.45;;;;;;;3.49;90.69;99831.52;1780877;78;21184;-65
2021/01/06 07:36:17;;;;;;;29.57;17.35;;;;;;;3.56;90.60;99824.40;1784391;78;21507;-66
2021/01/06 07:38:45;;;;;;;34.35;18.35;;;;;;;3.65;90.59;99826.78;1781769;78;21217;-65
2021/01/06 07:41:10;;;;;;;29.95;16.12;;;;;;;3.66;90.19;99836.74;1777245;79;21635;-65
2021/01/06 07:43:42;;;;;;;30.90;17.82;;;;;;;3.68;90.15;99836.98;1763860;78;28362;-65
2021/01/06 07:46:18;;;;;;;32.08;17.95;;;;;;;3.69;90.19;99839.11;1781205;78;21170;-65
2021/01/06 07:49:05;;;;;;;31.93;17.98;;;;;;;3.75;90.10;99843.38;1765774;78;21650;-65
2021/01/06 07:51:57;;;;;;;31.37;18.35;;;;;;;3.77;89.79;99849.78;1748196;79;21178;-64
2021/01/06 07:54:37;;;;;;;33.95;18.35;;;;;;;3.78;89.56;99848.84;1777745;78;21492;-64
2021/01/06 07:57:36;;;;;;;33.63;18.65;;;;;;;3.85;89.79;99848.70;1761945;79;21559;-65
2021/01/06 08:00:12;;;;;;;34.50;17.65;;;;;;;3.77;89.54;99848.48;1747766;79;21199;-65
2021/01/06 08:02:55;;;;;;;32.25;17.87;;;;;;;3.82;89.62;99854.16;1783384;78;21576;-65
2021/01/06 08:05:26;;;;;;;32.88;17.15;;;;;;;3.84;89.65;99852.28;1776019;78;21220;-65
2021/01/06 08:08:06;;;;;;;26.25;17.25;;;;;;;3.83;89.78;99846.69;1782730;78;22591;-65
2021/01/06 08:10:33;;;;;;;30.48;17.42;;;;;;;3.84;89.61;99854.89;1782181;78;21200;-66
2021/01/06 08:13:15;;;;;;;31.87;18.32;;;;;;;3.88;89.61;99851.07;1783125;78;21549;-67
2021/01/06 08:15:42;;;;;;;33.98;17.50;;;;;;;3.94;89.49;99863.65;1785173;78;21648;-66
2021/01/06 08:18:56;;;;;;;28.20;17.05;;;;;;;3.90;89.17;99857.02;1784858;78;21209;-66
2021/01/06 08:21:32;;;;;;;28.67;17.20;;;;;;;3.94;89.40;99863.65;1782386;78;21621;-67
2021/01/06 08:24:23;;;;;;;33.63;17.80;;;;;;;4.01;89.02;99857.94;1789559;79;21177;-67
2021/01/06 08:26:56;;;;;;;30.30;17.50;;;;;;;3.87;89.14;99854.66;1792962;79;21112;-67
2021/01/06 08:29:30;;;;;;;28.30;17.37;;;;;;;3.92;89.81;99860.34;1795156;79;21182;-67
2021/01/06 08:32:12;;;;;;;28.83;17.55;;;;;;;3.75;89.72;99858.22;1792981;79;21603;-68
2021/01/06 08:34:40;;;;;;;31.07;17.95;;;;;;;3.72;89.99;99855.84;1780532;79;21589;-66
2021/01/06 08:37:12;;;;;;;27.45;16.97;;;;;;;3.69;89.87;99857.39;1792808;79;21150;-66
2021/01/06 08:39:56;;;;;;;29.40;17.10;;;;;;;3.77;89.84;99857.13;1764147;79;21146;-65
2021/01/06 08:42:25;;;;;;;29.50;17.60;;;;;;;3.87;89.57;99862.94;1764652;79;21624;-67
2021/01/06 08:45:03;;;;;;;29.18;18.05;;;;;;;3.94;89.45;99854.99;1795641;79;21626;-67
2021/01/06 08:47:38;;;;;;;30.92;17.40;;;;;;;4.02;89.17;99851.30;1794583;79;21204;-66
2021/01/06 08:50:29;;;;;;;29.95;17.87;;;;;;;3.95;89.06;99848.83;1791309;79;21407;-66
2021/01/06 08:53:04;;;;;;;29.27;17.48;;;;;;;3.88;88.31;99854.98;1795401;79;21186;-64
2021/01/06 08:55:42;;;;;;;27.37;17.52;;;;;;;3.88;88.61;99858.91;1793056;79;21298;-66
2021/01/06 08:58:10;;;;;;;31.15;18.32;;;;;;;3.92;88.65;99860.34;1790268;78;21224;-65
2021/01/06 09:00:44;;;;;;;30.90;17.82;;;;;;;4.02;88.50;99857.00;1790716;79;21231;-65
2021/01/06 09:03:32;;;;;;;27.93;17.67;;;;;;;4.08;88.58;99858.64;1792881;79;21127;-65
2021/01/06 09:06:17;;;;;;;31.87;17.98;;;;;;;4.02;87.80;99855.70;1768092;79;21215;-65
2021/01/06 09:08:57;;;;;;;27.73;17.48;;;;;;;3.83;88.00;99846.69;1792550;79;21118;-65
2021/01/06 09:11:27;;;;;;;30.25;18.02;;;;;;;3.97;88.64;99851.32;1792756;79;21137;-65
2021/01/06 09:14:27;;;;;;;31.15;18.15;;;;;;;4.01;88.47;99860.55;1793207;79;21185;-65
2021/01/06 09:17:12;;;;;;;29.10;17.23;;;;;;;4.01;88.33;99852.72;1793848;79;21150;-65
2021/01/06 09:19:53;;;;;;;29.65;18.17;;;;;;;4.10;88.43;99854.60;1792192;79;21183;-65
2021/01/06 09:22:18;;;;;;;32.30;19.05;;;;;;;4.12;88.30;99854.02;1793689;79;22092;-66
2021/01/06 09:24:45;;;;;;;27.95;17.62;;;;;;;4.17;87.94;99853.66;1790544;79;25910;-66
2021/01/06 09:27:41;;;;;;;30.97;18.37;;;;;;;4.18;87.67;99856.61;1791331;79;21214;-66
2021/01/06 09:30:30;;;;;;;28.75;17.90;;;;;;;4.19;87.29;99852.56;1775554;78;21146;-68
2021/01/06 09:32:56;;;;;;;27.98;17.15;;;;;;;4.24;87.20;99856.97;1793483;78;21194;-68
2021/01/06 09:35:32;;;;;;;32.58;18.27;;;;;;;4.19;86.57;99856.48;1794026;79;21170;-68
2021/01/06 09:38:08;;;;;;;29.42;18.27;;;;;;;4.18;86.90;99851.38;1789611;79;21221;-69
2021/01/06 09:40:35;;;;;;;29.18;18.48;;;;;;;4.22;86.87;99858.03;1794645;78;21229;-67
2021/01/06 09:43:08;;;;;;;30.08;17.87;;;;;;;4.29;87.01;99854.81;1793977;79;21239;-69
2021/01/06 09:45:33;;;;;;;27.40;17.23;;;;;;;4.29;86.81;99860.03;1792046;79;21165;-69
2021/01/06 09:48:05;;;;;;;28.47;17.62;;;;;;;4.35;86.76;99857.42;1766604;79;22093;-69
2021/01/06 09:50:38;;;;;;;31.00;18.70;;;;;;;4.33;86.55;99858.00;1766423;79;21176;-69
2021/01/06 09:53:06;;;;;;;31.80;19.25;;;;;;;4.26;86.76;99861.59;1791488;79;21204;-68
2021/01/06 09:55:31;;;;;;;;;;;;;;;4.14;87.01;99849.01;1771381;79;21165;-68
2021/01/06 09:58:09;;;;;;;32.60;17.73;;;;;;;4.11;87.22;99848.44;1794229;78;20729;-67
2021/01/06 10:00:49;;;;;;;29.50;18.50;;;;;;;4.09;87.51;99851.66;1766372;79;21706;-66
2021/01/06 10:03:15;;;;;;;28.07;18.62;;;;;;;4.11;87.69;99852.36;1792383;79;21204;-66
2021/01/06 10:06:14;;;;;;;30.37;17.77;;;;;;;4.20;87.68;99853.41;1793575;79;23754;-66
2021/01/06 10:08:51;;;;;;;27.25;17.48;;;;;;;4.26;87.49;99857.67;1795603;78;21193;-67
2021/01/06 10:11:34;;;;;;;28.02;18.82;;;;;;;4.14;86.79;99861.26;1793680;79;21156;-66
2021/01/06 10:14:09;;;;;;;29.02;18.00;;;;;;;4.23;87.49;99867.06;1791917;78;21213;-68
2021/01/06 10:16:39;;;;;;;27.73;17.20;;;;;;;4.23;87.24;99864.94;1791134;79;21531;-68
2021/01/06 10:19:30;;;;;;;28.45;17.55;;;;;;;4.32;87.23;99852.44;1736024;79;21225;-67
2021/01/06 10:22:13;;;;;;;26.42;17.02;;;;;;;4.35;86.93;99860.48;1792288;79;21186;-67
2021/01/06 10:25:26;;;;;;;32.13;18.57;;;;;;;4.42;86.64;99856.44;1795102;78;21147;-66
2021/01/06 10:28:21;;;;;;;30.68;17.50;;;;;;;4.48;86.73;99855.95;1793938;79;21197;-67
2021/01/06 10:31:18;;;;;;;27.32;17.40;;;;;;;4.48;87.41;99844.17;1791377;79;21158;-67
2021/01/06 10:34:07;;;;;;;27.52;17.20;;;;;;;4.64;87.43;99837.22;1793396;79;21191;-67
2021/01/06 10:37:05;;;;;;;26.68;17.20;;;;;;;4.65;86.05;99837.09;1790775;79;21239;-67
2021/01/06 10:39:43;;;;;;;25.25;16.90;;;;;;;4.61;85.71;99836.98;1791543;79;21792;-68
2021/01/06 10:42:23;;;;;;;28.23;17.48;;;;;;;4.57;85.55;99838.66;1792116;79;21633;-68
2021/01/06 10:45:06;;;;;;;27.27;17.40;;;;;;;4.50;85.82;99840.95;1789680;79;21161;-68
2021/01/06 10:47:38;;;;;;;27.35;16.55;;;;;;;4.49;85.68;99836.70;1791903;79;22262;-69
2021/01/06 10:50:30;;;;;;;26.77;17.55;;;;;;;4.57;85.88;99830.36;1778330;79;21685;-68
2021/01/06 10:53:21;;;;;;;27.32;16.97;;;;;;;4.55;85.92;99828.32;1794194;79;21177;-67
2021/01/06 10:56:10;;;;;;;28.35;17.82;;;;;;;4.65;85.69;99830.55;1791177;79;21201;-67
2021/01/06 10:58:47;;;;;;;30.12;17.17;;;;;;;4.68;85.12;99831.61;1791927;78;22447;-66
2021/01/06 11:01:32;;;;;;;28.40;18.48;;;;;;;4.78;85.56;99834.28;1793370;79;21138;-67
2021/01/06 11:04:36;;;;;;;29.00;18.07;;;;;;;4.80;85.30;99831.54;1793042;79;21212;-66
2021/01/06 11:07:49;;;;;;;28.38;17.82;;;;;;;4.78;84.91;99830.84;1793735;78;21193;-66
2021/01/06 11:10:35;;;;;;;27.95;16.82;;;;;;;4.84;84.96;99832.95;1791056;79;21344;-66
2021/01/06 11:13:13;;;;;;;27.73;17.05;;;;;;;4.87;84.73;99830.09;1731472;78;21222;-66
2021/01/06 11:16:12;;;;;;;27.10;17.07;;;;;;;4.86;84.54;99823.19;1791209;79;21227;-67
2021/01/06 11:18:42;;;;;;;26.70;16.75;;;;;;;4.80;84.89;99825.00;1765246;79;21284;-66
2021/01/06 11:21:39;;;;;;;27.00;17.40;;;;;;;4.74;84.79;99813.73;1792987;78;21220;-65
2021/01/06 11:23:59;;;;;;;30.32;18.70;;;;;;;4.71;84.97;99807.45;1790701;78;21252;-66
2021/01/06 11:26:43;;;;;;;30.08;18.85;;;;;;;4.67;85.32;99808.19;1793925;79;21230;-69
2021/01/06 11:29:19;;;;;;;26.95;16.87;;;;;;;4.74;85.32;99804.58;1793230;79;21170;-68
2021/01/06 11:32:05;;;;;;;25.88;16.95;;;;;;;4.78;84.91;99804.69;1792645;79;21615;-65
2021/01/06 11:34:37;;;;;;;25.55;16.25;;;;;;;4.86;84.75;99803.56;1796813;78;21165;-66
2021/01/06 11:37:06;;;;;;;27.02;17.40;;;;;;;4.90;84.21;99803.67;1797164;78;22014;-67
2021/01/06 11:39:43;;;;;;;27.10;17.23;;;;;;;4.92;83.96;99799.12;1787971;79;21201;-66
2021/01/06 11:42:20;;;;;;;26.87;16.30;;;;;;;4.97;83.89;99802.20;1791167;79;21213;-66
2021/01/06 11:45:12;;;;;;;23.10;15.30;;;;;;;4.96;83.21;99795.30;1795573;79;21604;-66
2021/01/06 11:47:50;;;;;;;24.60;16.48;;;;;;;4.97;83.16;99793.05;1792956;79;21201;-67
2021/01/06 11:50:43;;;;;;;24.87;17.20;;;;;;;5.02;83.31;99794.80;1768139;79;21434;-67
2021/01/06 11:53:30;;;;;;;26.82;17.27;;;;;;;5.07;83.21;99790.97;1792601;78;21259;-67
2021/01/06 11:56:24;;;;;;;27.17;16.57;;;;;;;5.10;83.47;99791.53;1765699;79;21189;-67
2021/01/06 11:59:04;;;;;;;27.48;16.32;;;;;;;5.08;83.12;99792.61;1794187;78;21150;-67
2021/01/06 12:02:21;;;;;;;24.87;15.80;;;;;;;5.08;83.00;99789.98;1789292;79;21201;-66
2021/01/06 12:05:23;;;;;;;23.73;15.48;;;;;;;5.11;82.99;99784.50;1792985;79;21209;-66
2021/01/06 12:08:13;;;;;;;25.02;16.27;;;;;;;5.16;82.71;99790.19;1791250;79;21221;-67
2021/01/06 12:11:32;;;;;;;25.62;15.88;;;;;;;5.05;82.85;99789.79;1790738;78;21201;-67
2021/01/06 12:14:34;;;;;;;24.25;15.53;;;;;;;5.03;83.34;99779.45;1741037;80;21256;-66